Time;durP1;ratioP1;P1;durP2;ratioP2;P2;SDS_P1;SDS_P2;PMS_P1;PMS_P2;Temp;Humidity;BMP_temperature;BMP_pressure;BME280_temperature;BME280_humidity;BME280_pressure;Samples;Min_cycle;Max_cycle;Signal;HPM_P1;HPM_P2
2021/09/18 00:00:02;;;;;;;70.67;21.62;;;;;;;11.50;55.98;100756.90;1777893;79;21254;-65
2021/09/18 00:02:35;;;;;;;64.65;23.60;;;;;;;11.53;55.66;100750.09;1763747;79;21144;-64
2021/09/18 00:05:10;;;;;;;70.12;23.40;;;;;;;11.56;55.68;100753.73;1786710;80;21293;-65
2021/09/18 00:07:43;;;;;;;59.33;22.05;;;;;;;11.60;55.71;100759.57;1772585;79;22489;-66
2021/09/18 00:10:17;;;;;;;54.47;18.20;;;;;;;11.61;55.84;100762.56;1774816;79;21314;-65
2021/09/18 00:12:51;;;;;;;42.53;15.55;;;;;;;11.61;55.39;100755.50;1776592;79;21550;-65
2021/09/18 00:15:24;;;;;;;;;;;;;;;11.62;55.05;100753.71;1774568;80;21124;-65
2021/09/18 00:17:58;;;;;;;44.95;13.53;;;;;;;11.61;54.69;100748.94;1778893;79;20604;-65
2021/09/18 00:20:32;;;;;;;47.78;16.17;;;;;;;11.63;54.52;100754.88;1771381;79;21150;-65
2021/09/18 00:23:07;;;;;;;60.28;19.60;;;;;;;11.65;54.52;100754.30;1781569;79;21318;-65
2021/09/18 00:25:40;;;;;;;40.92;16.37;;;;;;;11.67;54.91;100772.52;1779011;79;21163;-65
2021/09/18 00:28:13;;;;;;;;;;;;;;;11.67;55.40;100773.83;1786583;80;21130;-64
2021/09/18 00:30:46;;;;;;;51.48;16.82;;;;;;;11.65;56.07;100767.41;1778632;79;20159;-65
2021/09/18 00:33:20;;;;;;;49.65;16.52;;;;;;;11.61;56.32;100754.69;1781037;79;21132;-64
2021/09/18 00:35:53;;;;;;;37.33;16.10;;;;;;;11.61;56.45;100773.85;1798956;79;21156;-65
2021/09/18 00:38:26;;;;;;;29.83;12.70;;;;;;;11.62;56.55;100773.38;1798589;79;21432;-64
2021/09/18 00:40:59;;;;;;;;;;;;;;;11.60;56.71;100763.50;1800799;79;21128;-65
2021/09/18 00:43:32;;;;;;;47.62;14.95;;;;;;;11.58;56.74;100757.56;1797839;79;20219;-65
2021/09/18 00:46:05;;;;;;;46.13;15.10;;;;;;;11.57;56.72;100767.22;1799116;79;21259;-65
2021/09/18 00:48:38;;;;;;;45.80;15.50;;;;;;;11.58;56.90;100760.19;1800316;79;21283;-65
2021/09/18 00:51:13;;;;;;;44.67;17.10;;;;;;;11.60;57.11;100767.44;1798377;79;21129;-64
2021/09/18 00:53:47;;;;;;;58.58;20.70;;;;;;;11.58;57.42;100767.58;1796896;79;21338;-65
2021/09/18 00:56:20;;;;;;;43.63;18.80;;;;;;;11.56;57.81;100766.85;1799783;78;21220;-64
2021/09/18 00:58:53;;;;;;;;;;;;;;;11.56;58.02;100762.92;1801994;78;21315;-65
2021/09/18 01:01:26;;;;;;;50.92;16.90;;;;;;;11.58;58.13;100770.67;1802949;78;20599;-64
2021/09/18 01:04:09;;;;;;;52.53;17.57;;;;;;;11.57;58.22;100769.84;1799407;78;21193;-64
2021/09/18 01:06:42;;;;;;;42.03;16.23;;;;;;;11.57;58.29;100771.15;1774003;79;21370;-64
2021/09/18 01:09:16;;;;;;;38.30;14.03;;;;;;;11.58;58.32;100768.05;1804640;78;21747;-64
2021/09/18 01:11:50;;;;;;;;;;;;;;;11.57;58.33;100769.00;1806955;78;21128;-64
2021/09/18 01:14:23;;;;;;;36.10;13.72;;;;;;;11.59;58.48;100769.70;1801752;78;20175;-65
2021/09/18 01:16:56;;;;;;;36.35;12.35;;;;;;;11.56;58.25;100772.61;1805972;78;21288;-65
2021/09/18 01:19:30;;;;;;;34.65;13.05;;;;;;;11.55;58.17;100770.92;1812388;78;21121;-64
2021/09/18 01:22:05;;;;;;;;;;;;;;;11.55;58.08;100760.44;1812472;78;21121;-65
2021/09/18 01:24:39;;;;;;;25.77;11.78;;;;;;;11.56;58.05;100758.18;1802823;78;20190;-64
2021/09/18 01:27:12;;;;;;;;;;;;;;;11.56;57.85;100758.98;1807364;78;21121;-65
2021/09/18 01:29:45;;;;;;;28.20;12.30;;;;;;;11.55;57.71;100756.50;1801397;78;20155;-65
2021/09/18 01:32:19;;;;;;;29.12;11.83;;;;;;;11.51;57.62;100748.89;1809215;78;21160;-65
2021/09/18 01:34:53;;;;;;;33.78;11.73;;;;;;;11.52;57.36;100751.04;1810958;79;21169;-65
2021/09/18 01:37:27;;;;;;;27.73;9.88;;;;;;;11.52;57.19;100751.04;1799140;78;21124;-65
2021/09/18 01:40:00;;;;;;;21.37;8.35;;;;;;;11.53;56.78;100752.20;1798601;79;21409;-65
2021/09/18 01:42:34;;;;;;;27.90;11.25;;;;;;;11.55;56.73;100746.86;1803438;79;21306;-65
2021/09/18 01:45:09;;;;;;;32.05;12.10;;;;;;;11.56;57.02;100750.31;1807650;78;21260;-65
2021/09/18 01:47:55;;;;;;;31.15;12.20;;;;;;;11.57;57.26;100749.33;1805528;78;21275;-65
2021/09/18 01:50:47;;;;;;;43.13;16.02;;;;;;;11.56;57.53;100749.00;1805828;78;21244;-65
2021/09/18 01:53:22;;;;;;;133.18;47.03;;;;;;;11.54;57.68;100754.36;1809736;78;21187;-65
2021/09/18 01:55:56;;;;;;;169.32;60.70;;;;;;;11.52;57.76;100752.34;1807184;78;21133;-65
2021/09/18 01:58:30;;;;;;;292.62;100.20;;;;;;;11.50;57.82;100759.05;1795700;79;21219;-65
2021/09/18 02:01:03;;;;;;;;;;;;;;;11.46;57.97;100756.81;1805515;79;21268;-65
2021/09/18 02:03:37;;;;;;;91.17;33.38;;;;;;;11.44;58.30;100765.27;1809511;78;20197;-64
2021/09/18 02:06:15;;;;;;;81.95;24.60;;;;;;;11.39;58.58;100762.23;1801873;78;21173;-64
2021/09/18 02:08:47;;;;;;;78.07;25.80;;;;;;;11.36;58.80;100760.69;1799491;78;21163;-65
2021/09/18 02:11:22;;;;;;;71.92;23.35;;;;;;;11.32;59.01;100767.63;1807662;78;21320;-64
2021/09/18 02:13:56;;;;;;;89.85;27.50;;;;;;;11.27;59.27;100771.92;1801930;78;21132;-64
2021/09/18 02:16:30;;;;;;;90.42;30.08;;;;;;;11.26;59.40;100770.75;1809737;78;21162;-65
2021/09/18 02:19:03;;;;;;;67.55;22.70;;;;;;;11.24;59.60;100773.52;1804454;78;21660;-64
2021/09/18 02:21:37;;;;;;;59.38;22.65;;;;;;;11.22;59.77;100764.95;1807055;78;21196;-63
2021/09/18 02:24:10;;;;;;;;;;;;;;;11.22;59.84;100764.95;1806582;78;21207;-64
2021/09/18 02:26:43;;;;;;;103.95;31.80;;;;;;;11.22;59.85;100770.19;1806323;79;20241;-64
2021/09/18 02:29:16;;;;;;;118.27;35.97;;;;;;;11.23;59.78;100777.55;1802001;78;21215;-64
2021/09/18 02:31:50;;;;;;;;;;;;;;;11.21;59.85;100778.16;1814893;78;21307;-64
2021/09/18 02:34:24;;;;;;;98.37;30.07;;;;;;;11.21;59.97;100782.93;1808610;78;20627;-65
2021/09/18 02:36:58;;;;;;;116.22;35.50;;;;;;;11.19;60.12;100774.37;1798583;79;21133;-64
2021/09/18 02:39:32;;;;;;;61.35;18.40;;;;;;;11.17;59.84;100773.67;1807083;79;21288;-64
2021/09/18 02:42:05;;;;;;;46.30;16.00;;;;;;;11.16;59.85;100773.78;1804586;78;21216;-64
2021/09/18 02:44:38;;;;;;;36.13;12.78;;;;;;;11.17;60.29;100767.59;1804464;79;21816;-64
2021/09/18 02:47:12;;;;;;;;;;;;;;;11.15;60.41;100766.89;1808377;78;21188;-64
2021/09/18 02:49:44;;;;;;;37.80;12.15;;;;;;;11.11;60.55;100764.15;1802933;78;20600;-64
2021/09/18 02:52:18;;;;;;;30.35;11.90;;;;;;;11.06;60.56;100767.16;1803638;78;21814;-64
2021/09/18 02:54:52;;;;;;;28.13;10.03;;;;;;;11.00;60.14;100766.84;1806832;79;21294;-65
2021/09/18 02:57:25;;;;;;;;;;;;;;;11.04;59.78;100776.94;1799315;78;21466;-64
2021/09/18 02:59:58;;;;;;;38.70;13.15;;;;;;;11.05;59.90;100777.30;1804890;78;20190;-64
2021/09/18 03:02:32;;;;;;;35.73;13.27;;;;;;;11.06;60.23;100777.64;1802675;78;21327;-65
2021/09/18 03:05:08;;;;;;;43.42;13.83;;;;;;;11.06;60.23;100777.64;1806106;78;21750;-64
2021/09/18 03:07:41;;;;;;;38.38;13.62;;;;;;;11.07;60.48;100779.78;1803546;78;21264;-64
2021/09/18 03:10:15;;;;;;;26.48;11.10;;;;;;;11.07;60.69;100787.64;1809914;78;21255;-65
2021/09/18 03:12:48;;;;;;;38.33;11.85;;;;;;;11.02;60.64;100781.47;1803547;78;21181;-65
2021/09/18 03:15:23;;;;;;;29.10;12.03;;;;;;;11.03;60.61;100780.53;1807190;78;21169;-65
2021/09/18 03:17:57;;;;;;;39.90;12.43;;;;;;;11.00;60.80;100788.63;1801130;79;21198;-64
2021/09/18 03:20:30;;;;;;;30.92;11.28;;;;;;;11.00;60.96;100789.11;1806526;78;21252;-65
2021/09/18 03:23:04;;;;;;;47.08;11.68;;;;;;;11.00;61.00;100787.33;1810158;78;21259;-64
2021/09/18 03:25:37;;;;;;;41.00;11.57;;;;;;;11.02;60.82;100792.42;1805270;78;21149;-63
2021/09/18 03:28:12;;;;;;;37.78;13.32;;;;;;;11.03;60.97;100790.17;1799110;78;21836;-64
2021/09/18 03:30:45;;;;;;;37.50;13.08;;;;;;;11.08;61.08;100794.56;1805582;78;21251;-65
2021/09/18 03:33:19;;;;;;;;;;;;;;;11.12;61.03;100799.42;1798990;79;21133;-64
2021/09/18 03:35:52;;;;;;;40.33;17.15;;;;;;;11.19;60.88;100807.59;1803626;79;20198;-65
2021/09/18 03:38:26;;;;;;;44.95;18.12;;;;;;;11.24;60.33;100810.67;1803715;78;21255;-65
2021/09/18 03:41:00;;;;;;;;;;;;;;;11.28;60.10;100810.77;1802613;78;21180;-65
2021/09/18 03:43:33;;;;;;;41.50;17.92;;;;;;;11.31;60.10;100812.66;1800572;78;20170;-64
2021/09/18 03:46:07;;;;;;;38.75;17.80;;;;;;;11.37;60.10;100822.63;1805948;78;21821;-65
2021/09/18 03:48:40;;;;;;;39.40;14.18;;;;;;;11.45;59.86;100820.21;1801680;78;21259;-65
2021/09/18 03:51:14;;;;;;;40.65;15.08;;;;;;;11.55;59.41;100821.59;1807931;78;21175;-65
2021/09/18 03:53:48;;;;;;;38.15;15.15;;;;;;;11.63;58.82;100821.76;1809919;79;21704;-64
2021/09/18 03:56:21;;;;;;;38.90;14.00;;;;;;;11.74;58.39;100826.98;1797146;78;21333;-64
2021/09/18 03:58:55;;;;;;;38.80;14.83;;;;;;;11.84;58.20;100827.03;1782741;79;21167;-65
2021/09/18 04:01:28;;;;;;;30.25;14.43;;;;;;;11.94;58.24;100831.34;1786957;78;21253;-65
2021/09/18 04:04:03;;;;;;;42.98;15.50;;;;;;;12.03;57.29;100835.00;1800982;78;21183;-65
2021/09/18 04:06:36;;;;;;;;;;;;;;;12.09;57.15;100826.11;1813231;78;21367;-65
2021/09/18 04:09:09;;;;;;;35.55;11.60;;;;;;;12.16;57.09;100837.74;1822855;78;20166;-64
2021/09/18 04:11:43;;;;;;;37.85;14.03;;;;;;;12.20;56.70;100839.64;1789315;78;21856;-64
2021/09/18 04:14:16;;;;;;;52.23;19.32;;;;;;;12.24;56.36;100838.40;1770952;80;21285;-64
2021/09/18 04:16:50;;;;;;;84.45;33.73;;;;;;;12.31;56.39;100844.78;1778699;79;21375;-64
2021/09/18 04:19:23;;;;;;;137.50;59.18;;;;;;;12.37;56.43;100840.30;1778689;80;21296;-64
2021/09/18 04:21:57;;;;;;;108.17;48.15;;;;;;;12.43;56.46;100833.22;1772663;79;21167;-64
2021/09/18 04:24:30;;;;;;;60.17;25.77;;;;;;;12.47;56.27;100835.07;1776686;79;21221;-64
2021/09/18 04:27:05;;;;;;;45.80;15.15;;;;;;;12.49;56.25;100833.17;1793283;79;21152;-64
2021/09/18 04:29:39;;;;;;;31.15;12.20;;;;;;;12.49;56.04;100834.48;1795801;79;21743;-65
2021/09/18 04:32:13;;;;;;;26.73;12.00;;;;;;;12.51;55.92;100828.61;1800129;79;21318;-64
2021/09/18 04:34:47;;;;;;;28.52;12.10;;;;;;;12.55;55.62;100834.77;1801230;79;21145;-65
2021/09/18 04:37:20;;;;;;;50.03;16.67;;;;;;;12.60;55.35;100840.93;1811316;79;21242;-65
2021/09/18 04:39:54;;;;;;;41.48;17.35;;;;;;;12.66;55.37;100841.21;1814848;78;21276;-64
2021/09/18 04:42:27;;;;;;;65.55;22.37;;;;;;;12.73;55.19;100839.70;1813327;78;21179;-64
2021/09/18 04:45:00;;;;;;;58.80;23.62;;;;;;;12.84;54.91;100843.55;1814917;78;21783;-64
2021/09/18 04:47:33;;;;;;;76.50;30.48;;;;;;;12.95;54.90;100842.57;1824396;78;21227;-65
2021/09/18 04:50:08;;;;;;;74.45;29.77;;;;;;;13.07;54.82;100842.83;1817998;78;21253;-66
2021/09/18 04:52:43;;;;;;;99.25;39.30;;;;;;;13.19;54.53;100844.83;1818768;78;21153;-62
2021/09/18 04:55:16;;;;;;;;;;;;;;;13.32;54.28;100841.45;1819168;78;21197;-62
2021/09/18 04:57:49;;;;;;;149.47;63.05;;;;;;;13.42;53.92;100843.59;1815211;78;20278;-63
2021/09/18 05:00:23;;;;;;;157.20;71.10;;;;;;;13.50;53.75;100843.22;1816020;78;21189;-62
2021/09/18 05:02:56;;;;;;;140.50;59.05;;;;;;;13.62;53.55;100839.11;1815161;78;21266;-62
2021/09/18 05:05:29;;;;;;;114.45;51.42;;;;;;;13.74;53.15;100844.08;1820458;78;21304;-64
2021/09/18 05:08:03;;;;;;;105.23;50.87;;;;;;;13.87;52.75;100843.78;1816696;79;21922;-65
2021/09/18 05:10:37;;;;;;;103.02;45.78;;;;;;;14.02;52.14;100851.54;1813420;78;21197;-61
2021/09/18 05:13:11;;;;;;;78.30;32.75;;;;;;;14.16;51.69;100858.49;1812142;78;21138;-66
2021/09/18 05:15:44;;;;;;;71.67;30.75;;;;;;;14.31;51.05;100860.20;1820635;78;21268;-65
2021/09/18 05:18:17;;;;;;;59.67;26.57;;;;;;;14.48;50.54;100865.19;1816770;78;21147;-64
2021/09/18 05:20:51;;;;;;;73.70;31.05;;;;;;;14.64;50.13;100862.25;1815200;78;21840;-66
2021/09/18 05:23:25;;;;;;;58.83;25.10;;;;;;;14.78;49.72;100859.63;1812275;78;21275;-67
2021/09/18 05:25:59;;;;;;;50.85;20.57;;;;;;;14.93;49.14;100862.55;1820354;78;21125;-66
2021/09/18 05:28:32;;;;;;;66.40;19.57;;;;;;;15.08;48.77;100858.44;1816007;78;21307;-64
2021/09/18 05:31:06;;;;;;;55.70;19.87;;;;;;;15.27;48.31;100859.60;1817545;78;21209;-65
2021/09/18 05:33:40;;;;;;;53.28;22.52;;;;;;;15.49;47.48;100865.28;1818884;78;21156;-66
2021/09/18 05:36:15;;;;;;;52.58;19.23;;;;;;;15.77;47.02;100865.14;1818783;79;21731;-64
2021/09/18 05:38:48;;;;;;;51.63;21.93;;;;;;;16.07;46.22;100872.62;1826687;78;21264;-62
2021/09/18 05:41:21;;;;;;;53.28;19.32;;;;;;;16.30;45.77;100868.92;1814886;78;21284;-64
2021/09/18 05:43:54;;;;;;;49.73;21.70;;;;;;;16.52;45.04;100865.77;1813729;78;21290;-67
2021/09/18 05:46:26;;;;;;;62.20;27.27;;;;;;;16.64;44.86;100861.84;1822548;78;21878;-65
2021/09/18 05:49:00;;;;;;;48.70;19.23;;;;;;;16.78;44.76;100865.19;1818827;78;21337;-65
2021/09/18 05:51:33;;;;;;;60.05;20.97;;;;;;;16.97;44.13;100867.55;1819258;78;21259;-66
2021/09/18 05:54:07;;;;;;;58.52;21.33;;;;;;;17.19;43.92;100869.58;1814691;78;21266;-64
2021/09/18 05:56:40;;;;;;;50.98;20.25;;;;;;;17.43;43.57;100862.95;1826779;78;21699;-65
2021/09/18 05:59:15;;;;;;;42.60;17.17;;;;;;;17.81;43.06;100860.66;1741790;81;21315;-64
2021/09/18 06:01:49;;;;;;;57.38;17.85;;;;;;;18.24;41.89;100859.39;1741725;81;21188;-64
2021/09/18 06:04:22;;;;;;;;;;;;;;;19.05;41.06;100858.03;1745067;81;21346;-66
2021/09/18 06:06:56;;;;;;;49.95;19.92;;;;;;;19.91;39.36;100860.32;1772374;80;20235;-65
2021/09/18 06:09:29;;;;;;;36.25;16.37;;;;;;;20.38;38.07;100861.31;1769658;81;21150;-65
2021/09/18 06:12:02;;;;;;;;;;;;;;;21.11;36.98;100859.33;1819114;78;21314;-65
2021/09/18 06:14:36;;;;;;;33.48;9.28;;;;;;;21.88;34.99;100865.57;1807740;78;20241;-65
2021/09/18 06:17:10;;;;;;;19.05;7.55;;;;;;;22.57;33.48;100873.58;1807606;77;21212;-66
2021/09/18 06:19:46;;;;;;;15.28;6.80;;;;;;;23.15;32.34;100868.11;1801556;77;21127;-66
2021/09/18 06:22:19;;;;;;;16.42;6.12;;;;;;;24.01;30.99;100869.80;1797126;77;21311;-67
2021/09/18 06:24:54;;;;;;;17.60;5.97;;;;;;;24.71;29.25;100864.47;1794183;78;21185;-66
2021/09/18 06:27:28;;;;;;;15.88;6.00;;;;;;;25.31;28.62;100868.48;1797189;77;21230;-67
2021/09/18 06:30:02;;;;;;;22.17;7.10;;;;;;;25.67;27.89;100865.13;1769202;78;21339;-69
2021/09/18 06:32:35;;;;;;;22.10;6.58;;;;;;;25.77;27.57;100860.61;1793176;77;21193;-69
2021/09/18 06:35:11;;;;;;;26.15;7.60;;;;;;;25.76;27.66;100858.95;1785203;78;21393;-68
2021/09/18 06:37:45;;;;;;;15.43;6.53;;;;;;;25.55;27.37;100860.17;1794396;77;21282;-68
2021/09/18 06:40:20;;;;;;;23.50;7.90;;;;;;;25.00;28.04;100863.63;1790748;77;21323;-69
2021/09/18 06:42:53;;;;;;;15.85;6.00;;;;;;;24.50;28.60;100867.96;1796531;78;21206;-71
2021/09/18 06:45:28;;;;;;;20.97;5.33;;;;;;;24.18;28.79;100866.19;1797420;77;21201;-69
2021/09/18 06:48:01;;;;;;;31.62;9.05;;;;;;;24.02;28.99;100860.76;1810821;78;21314;-66
2021/09/18 06:50:35;;;;;;;26.33;6.65;;;;;;;24.04;29.02;100867.55;1801461;78;21998;-66
2021/09/18 06:53:08;;;;;;;20.08;8.20;;;;;;;24.13;29.12;100858.80;1778267;78;21795;-67
2021/09/18 06:55:42;;;;;;;21.65;8.53;;;;;;;24.41;28.95;100858.53;1780686;79;21357;-67
2021/09/18 06:58:14;;;;;;;;;;;;;;;24.75;28.24;100853.63;1786462;78;21277;-66
2021/09/18 07:00:48;;;;;;;17.50;6.35;;;;;;;25.09;27.89;100849.76;1786317;77;20214;-68
2021/09/18 07:03:23;;;;;;;23.30;8.75;;;;;;;25.48;27.26;100847.86;1792387;78;21882;-69
2021/09/18 07:05:57;;;;;;;25.35;8.68;;;;;;;26.06;26.59;100849.98;1794742;78;21837;-70
2021/09/18 07:08:31;;;;;;;30.27;8.58;;;;;;;26.91;26.05;100848.69;1794285;78;21275;-64
2021/09/18 07:11:05;;;;;;;28.10;8.10;;;;;;;28.03;24.63;100851.23;1789201;77;21713;-66
2021/09/18 07:13:40;;;;;;;23.62;7.83;;;;;;;29.06;23.71;100841.22;1799871;78;21233;-66
2021/09/18 07:16:14;;;;;;;21.37;7.00;;;;;;;30.02;22.47;100832.52;1798421;78;21266;-66
2021/09/18 07:18:48;;;;;;;15.43;6.67;;;;;;;30.69;21.48;100829.84;1790496;78;21224;-65
2021/09/18 07:21:21;;;;;;;14.13;6.20;;;;;;;31.16;20.74;100830.89;1796264;78;21172;-67
2021/09/18 07:23:56;;;;;;;12.60;5.67;;;;;;;31.42;20.27;100826.50;1798226;78;21273;-66
2021/09/18 07:26:29;;;;;;;20.20;5.97;;;;;;;31.73;19.67;100828.38;1793527;78;21271;-65
2021/09/18 07:29:03;;;;;;;17.25;6.55;;;;;;;31.83;19.62;100820.84;1794758;78;21267;-67
2021/09/18 07:31:38;;;;;;;13.90;4.90;;;;;;;32.09;19.54;100828.06;1791838;79;21182;-67
2021/09/18 07:34:12;;;;;;;16.73;6.22;;;;;;;32.30;19.02;100831.13;1787266;78;21306;-67
2021/09/18 07:36:45;;;;;;;19.25;7.45;;;;;;;32.37;19.10;100821.39;1812236;78;21324;-65
2021/09/18 07:39:18;;;;;;;15.88;7.20;;;;;;;32.72;18.81;100820.16;1782804;78;21274;-66
2021/09/18 07:41:52;;;;;;;17.40;7.30;;;;;;;32.90;18.85;100825.09;1796385;78;21231;-64
2021/09/18 07:44:25;;;;;;;15.95;6.10;;;;;;;33.08;18.83;100815.63;1780701;78;21275;-64
2021/09/18 07:46:59;;;;;;;21.12;6.55;;;;;;;33.48;18.01;100817.52;1789723;78;21263;-67
2021/09/18 07:49:32;;;;;;;18.57;6.37;;;;;;;33.65;17.81;100805.86;1781887;78;21827;-65
2021/09/18 07:52:06;;;;;;;20.65;5.67;;;;;;;33.98;17.58;100809.30;1792551;78;21290;-67
2021/09/18 07:54:40;;;;;;;23.57;6.28;;;;;;;34.22;16.96;100813.03;1784004;78;21378;-66
2021/09/18 07:57:15;;;;;;;20.90;5.85;;;;;;;34.28;16.90;100810.55;1788605;78;21921;-66
2021/09/18 07:59:48;;;;;;;15.20;5.15;;;;;;;34.42;16.67;100806.66;1790411;78;21311;-66
2021/09/18 08:02:22;;;;;;;14.85;4.97;;;;;;;34.37;16.80;100804.79;1800244;78;21288;-66
2021/09/18 08:04:56;;;;;;;9.95;4.83;;;;;;;34.38;16.53;100800.98;1799920;78;21308;-66
2021/09/18 08:07:30;;;;;;;22.67;6.00;;;;;;;34.44;16.40;100803.94;1795752;78;22120;-66
2021/09/18 08:10:04;;;;;;;13.22;5.85;;;;;;;34.56;16.43;100795.46;1786696;78;21323;-67
2021/09/18 08:12:38;;;;;;;16.05;5.70;;;;;;;34.80;16.35;100796.97;1786584;78;21303;-66
2021/09/18 08:15:11;;;;;;;16.85;5.42;;;;;;;35.33;15.90;100794.63;1801843;78;21297;-66
2021/09/18 08:17:48;;;;;;;12.55;4.60;;;;;;;35.69;15.38;100800.56;1781185;79;21291;-67
2021/09/18 08:20:21;;;;;;;13.05;4.78;;;;;;;35.63;15.33;100799.01;1735253;81;21306;-67
2021/09/18 08:22:54;;;;;;;12.65;5.05;;;;;;;35.74;15.25;100793.16;1729784;81;21216;-67
2021/09/18 08:25:28;;;;;;;13.68;4.70;;;;;;;36.10;15.18;100801.75;1737331;80;21161;-66
2021/09/18 08:28:01;;;;;;;12.98;4.42;;;;;;;36.49;14.74;100800.17;1728229;81;21199;-67
2021/09/18 08:30:35;;;;;;;12.30;4.40;;;;;;;36.74;14.27;100790.23;1720181;81;21933;-65
2021/09/18 08:33:09;;;;;;;15.63;4.67;;;;;;;36.85;14.10;100790.33;1735839;81;21154;-66
2021/09/18 08:35:42;;;;;;;19.67;5.78;;;;;;;36.87;14.19;100788.69;1741042;81;21206;-67
2021/09/18 08:38:17;;;;;;;18.92;6.20;;;;;;;36.62;14.03;100791.24;1740724;81;21383;-68
2021/09/18 08:40:51;;;;;;;16.20;5.80;;;;;;;36.11;14.68;100779.41;1720815;82;21375;-66
2021/09/18 08:43:25;;;;;;;17.32;5.70;;;;;;;35.46;14.95;100779.00;1728194;81;21255;-68
2021/09/18 08:46:00;;;;;;;16.30;7.45;;;;;;;34.28;15.56;100779.30;1726512;80;21315;-66
2021/09/18 08:48:35;;;;;;;59.70;31.33;;;;;;;33.11;16.56;100771.14;1727697;80;21732;-67
2021/09/18 08:51:09;;;;;;;17.73;6.30;;;;;;;32.38;17.66;100771.55;1737583;81;21256;-67
2021/09/18 08:53:43;;;;;;;27.58;8.23;;;;;;;31.75;17.83;100766.66;1744852;79;21218;-66
2021/09/18 08:56:16;;;;;;;41.63;13.80;;;;;;;31.18;18.35;100761.65;1734412;81;21302;-66
2021/09/18 08:58:50;;;;;;;14.25;5.42;;;;;;;30.59;19.48;100758.13;1738501;80;21297;-66
2021/09/18 09:01:22;;;;;;;;;;;;;;;30.31;19.83;100760.49;1746688;81;21328;-67
2021/09/18 09:04:01;;;;;;;17.90;4.65;;;;;;;30.54;19.78;100759.44;1737414;81;20186;-67
2021/09/18 09:06:50;;;;;;;21.33;8.15;;;;;;;30.72;19.81;100757.70;1792256;77;21290;-64
2021/09/18 09:09:24;;;;;;;14.78;6.08;;;;;;;31.09;18.99;100759.97;1792101;77;21335;-66
2021/09/18 09:11:58;;;;;;;13.55;4.90;;;;;;;31.09;18.83;100762.68;1792978;78;21152;-66
2021/09/18 09:14:35;;;;;;;12.90;5.10;;;;;;;30.96;19.10;100755.52;1747640;80;21327;-65
2021/09/18 09:17:09;;;;;;;12.05;5.22;;;;;;;31.08;18.99;100756.98;1751605;80;21207;-65
2021/09/18 09:19:43;;;;;;;54.63;31.75;;;;;;;31.05;18.72;100745.84;1767100;79;21875;-67
2021/09/18 09:22:37;;;;;;;36.53;15.78;;;;;;;31.00;18.88;100745.27;1744375;81;21243;-67
2021/09/18 09:25:35;;;;;;;20.35;4.75;;;;;;;30.93;19.08;100752.00;1777256;78;21346;-67
2021/09/18 09:28:31;;;;;;;21.90;9.88;;;;;;;30.92;18.80;100743.59;1786313;78;21883;-66
2021/09/18 09:31:26;;;;;;;13.08;4.65;;;;;;;31.04;19.18;100743.70;1807922;78;21189;-67
2021/09/18 09:34:17;;;;;;;22.07;9.90;;;;;;;31.15;19.17;100744.58;1765924;79;21184;-65
2021/09/18 09:37:07;;;;;;;33.35;18.92;;;;;;;30.92;19.36;100739.00;1797086;77;21306;-67
2021/09/18 09:39:40;;;;;;;38.17;19.70;;;;;;;30.41;19.60;100738.20;1803577;78;21189;-68
2021/09/18 09:42:13;;;;;;;33.33;18.62;;;;;;;29.97;20.11;100732.03;1764556;79;21291;-67
2021/09/18 09:44:49;;;;;;;21.50;10.38;;;;;;;29.79;20.49;100733.67;1764252;79;21184;-66
2021/09/18 09:47:24;;;;;;;8.85;4.03;;;;;;;29.52;20.39;100731.40;1795931;78;21222;-67
2021/09/18 09:49:59;;;;;;;12.00;3.87;;;;;;;29.19;21.00;100731.72;1763347;78;21226;-67
2021/09/18 09:52:34;;;;;;;25.50;4.08;;;;;;;28.80;21.41;100735.37;1765585;78;21778;-65
2021/09/18 09:55:16;;;;;;;26.12;8.78;;;;;;;28.43;21.72;100741.67;1767817;79;22148;-66
2021/09/18 09:58:05;;;;;;;22.42;8.43;;;;;;;27.96;22.47;100730.75;1771298;78;21200;-66
2021/09/18 10:00:50;;;;;;;13.45;5.30;;;;;;;27.38;23.56;100734.86;1768671;78;21660;-67
2021/09/18 10:03:24;;;;;;;13.78;3.15;;;;;;;26.98;23.79;100733.87;1803886;78;21349;-67
2021/09/18 10:05:57;;;;;;;16.23;3.85;;;;;;;26.61;24.51;100729.13;1724710;81;21347;-66
2021/09/18 10:08:32;;;;;;;10.35;3.87;;;;;;;26.24;25.19;100732.45;1799379;78;21140;-66
2021/09/18 10:11:05;;;;;;;12.75;3.42;;;;;;;25.94;25.69;100733.70;1793292;77;21194;-66
2021/09/18 10:13:39;;;;;;;8.93;2.90;;;;;;;25.75;25.88;100724.54;1772785;79;21173;-67
2021/09/18 10:16:11;;;;;;;;;;;;;;;25.64;26.16;100715.39;1699493;81;21409;-66
2021/09/18 10:18:45;;;;;;;91.25;44.10;;;;;;;25.55;26.23;100715.39;1761571;79;20223;-66
2021/09/18 10:24:11;;;;;;;37.98;5.47;;;;;;;25.22;27.21;100707.63;1722259;80;21244;-65
2021/09/18 10:26:44;;;;;;;24.18;5.35;;;;;;;25.05;27.56;100717.80;1796800;77;21313;-64
2021/09/18 10:29:45;;;;;;;14.65;8.05;;;;;;;24.96;27.91;100709.20;1795553;78;21255;-65
2021/09/18 10:32:29;;;;;;;24.30;6.85;;;;;;;24.98;27.82;100707.12;1795443;77;21306;-64
2021/09/18 10:35:15;;;;;;;16.42;4.15;;;;;;;24.98;28.56;100696.95;1781681;77;21234;-65
2021/09/18 10:37:48;;;;;;;10.35;2.62;;;;;;;24.93;28.43;100708.83;1769452;79;21239;-66
2021/09/18 10:40:20;;;;;;;13.03;3.62;;;;;;;24.87;28.27;100691.77;1791791;78;21843;-64
2021/09/18 10:42:54;;;;;;;17.92;4.12;;;;;;;24.82;28.56;100692.11;1793021;78;21241;-65
2021/09/18 10:45:40;;;;;;;8.33;3.25;;;;;;;24.75;28.86;100686.78;1787902;78;21350;-64
2021/09/18 10:48:35;;;;;;;11.05;3.40;;;;;;;24.63;28.79;100689.86;1795538;78;21256;-65
2021/09/18 10:51:08;;;;;;;12.90;3.50;;;;;;;24.54;29.11;100685.30;1793656;78;21378;-64
2021/09/18 10:54:12;;;;;;;9.85;3.10;;;;;;;24.59;29.32;100689.48;1795470;78;21325;-65
2021/09/18 10:57:07;;;;;;;6.40;2.55;;;;;;;24.55;28.84;100694.95;1793590;78;21158;-64
2021/09/18 10:59:45;;;;;;;11.70;2.40;;;;;;;24.32;28.93;100685.33;1775889;78;21164;-66
2021/09/18 11:02:40;;;;;;;10.15;2.62;;;;;;;24.21;29.54;100696.72;1803983;78;21180;-67
2021/09/18 11:05:30;;;;;;;7.50;2.85;;;;;;;24.20;29.69;100689.72;1787580;78;21825;-64
2021/09/18 11:08:19;;;;;;;8.50;2.65;;;;;;;24.22;29.53;100676.94;1793996;78;21201;-65
2021/09/18 11:11:10;;;;;;;10.95;2.85;;;;;;;24.22;29.53;100676.94;1787307;78;21152;-65
2021/09/18 11:13:45;;;;;;;13.95;2.87;;;;;;;24.15;29.79;100664.12;1750230;79;21228;-64
2021/09/18 11:16:25;;;;;;;11.48;3.02;;;;;;;24.07;30.35;100676.42;1738062;80;21203;-65
2021/09/18 11:19:04;;;;;;;7.53;2.67;;;;;;;24.05;30.44;100684.61;1769079;79;21811;-64
2021/09/18 11:21:40;;;;;;;17.62;3.40;;;;;;;24.05;30.44;100684.61;1711402;81;21762;-67
2021/09/18 11:24:22;;;;;;;16.30;4.70;;;;;;;24.03;30.26;100676.49;1780999;78;21882;-64
2021/09/18 11:26:58;;;;;;;9.48;3.20;;;;;;;24.03;30.18;100677.83;1792866;78;21204;-67
2021/09/18 11:29:36;;;;;;;19.95;11.03;;;;;;;24.03;30.05;100674.64;1799789;78;21169;-67
2021/09/18 11:32:15;;;;;;;26.02;11.80;;;;;;;24.00;30.02;100674.27;1782753;78;22216;-65
2021/09/18 11:34:51;;;;;;;172.85;64.50;;;;;;;23.96;30.22;100665.83;1801873;78;21313;-64
2021/09/18 11:37:30;;;;;;;41.02;19.52;;;;;;;23.94;30.09;100663.89;1790606;78;21186;-67
2021/09/18 11:40:08;;;;;;;27.70;7.08;;;;;;;24.02;29.69;100677.55;1800980;78;21818;-65
2021/09/18 11:42:44;;;;;;;8.43;3.08;;;;;;;24.02;29.69;100677.55;1777649;79;21169;-66
2021/09/18 11:45:20;;;;;;;11.45;3.50;;;;;;;24.06;29.00;100651.52;1718545;81;21278;-65
2021/09/18 11:47:58;;;;;;;14.75;3.37;;;;;;;24.08;29.14;100652.63;1745592;81;21204;-65
2021/09/18 11:50:34;;;;;;;7.85;2.98;;;;;;;24.14;29.33;100647.78;1806736;78;22159;-64
2021/09/18 11:53:12;;;;;;;101.47;32.55;;;;;;;24.26;28.53;100642.56;1759417;79;21317;-64
2021/09/18 11:55:51;;;;;;;21.77;7.37;;;;;;;24.31;28.50;100651.59;1781735;78;21215;-65
2021/09/18 11:58:33;;;;;;;20.17;8.28;;;;;;;24.31;28.50;100651.59;1805261;77;21329;-66